Time,TemperatureF,DewpointF,PressureIn,WindDirection,WindDirectionDegrees,WindSpeedMPH,WindSpeedGustMPH,Humidity,HourlyPrecipIn,Conditions,Clouds,dailyrainin,SoftwareType,DateUTC
2013-08-06 00:00:00,54.1,47.4,29.89,West,268,3.0,6.0,78,0.00,,,0.00,Wunderground v.1.15,2013-08-06 04:00:00,
2013-08-06 00:10:00,53.9,47.5,29.89,WNW,288,1.0,1.0,79,0.00,,,0.00,Wunderground v.1.15,2013-08-06 04:10:00,
2013-08-06 00:20:00,53.3,47.3,29.89,WNW,290,0.0,0.0,80,0.00,,,0.00,Wunderground v.1.15,2013-08-06 04:20:00,
2013-08-06 00:30:00,52.5,47.2,29.89,WNW,290,0.0,0.0,82,0.00,,,0.00,Wunderground v.1.15,2013-08-06 04:30:00,
2013-08-06 00:40:00,51.9,47.2,29.89,WNW,290,0.0,0.0,84,0.00,,,0.00,Wunderground v.1.15,2013-08-06 04:40:00,
2013-08-06 00:50:00,51.9,46.9,29.90,West,277,1.0,1.0,83,0.00,,,0.00,Wunderground v.1.15,2013-08-06 04:50:00,
2013-08-06 01:00:00,53.9,47.2,29.90,West,278,4.0,4.0,78,0.00,,,0.00,Wunderground v.1.15,2013-08-06 05:00:00,
2013-08-06 01:10:00,53.8,47.1,29.90,WNW,300,3.0,3.0,78,0.00,,,0.00,Wunderground v.1.15,2013-08-06 05:10:00,
2013-08-06 01:20:00,53.7,47.3,29.91,WNW,295,2.0,2.0,79,0.00,,,0.00,Wunderground v.1.15,2013-08-06 05:20:00,
2013-08-06 01:30:00,52.6,46.6,29.91,WNW,291,0.0,1.0,80,0.00,,,0.00,Wunderground v.1.15,2013-08-06 05:30:00,
2013-08-06 01:40:00,51.9,46.3,29.91,NW,322,0.0,2.0,81,0.00,,,0.00,Wunderground v.1.15,2013-08-06 05:40:00,
2013-08-06 01:50:00,51.5,46.5,29.91,NW,322,0.0,0.0,83,0.00,,,0.00,Wunderground v.1.15,2013-08-06 05:50:00,
2013-08-06 02:00:00,51.0,46.3,29.91,NW,321,0.0,0.0,84,0.00,,,0.00,Wunderground v.1.15,2013-08-06 06:00:00,
2013-08-06 02:10:00,51.4,46.4,29.91,WNW,303,2.0,3.0,83,0.00,,,0.00,Wunderground v.1.15,2013-08-06 06:10:00,
2013-08-06 02:20:00,51.8,46.2,29.92,WNW,302,2.0,3.0,81,0.00,,,0.00,Wunderground v.1.15,2013-08-06 06:20:00,
2013-08-06 02:30:00,52.6,46.3,29.92,WNW,282,3.0,3.0,79,0.00,,,0.00,Wunderground v.1.15,2013-08-06 06:30:00,
2013-08-06 02:40:00,53.3,46.3,29.92,WNW,294,3.0,3.0,77,0.00,,,0.00,Wunderground v.1.15,2013-08-06 06:40:00,
2013-08-06 02:50:00,53.2,46.2,29.93,WNW,294,1.0,1.0,77,0.00,,,0.00,Wunderground v.1.15,2013-08-06 06:50:00,
2013-08-06 03:00:00,53.2,45.8,29.93,WNW,293,2.0,2.0,76,0.00,,,0.00,Wunderground v.1.15,2013-08-06 07:00:00,
2013-08-06 03:10:00,52.8,45.8,29.93,WNW,302,1.0,1.0,77,0.00,,,0.00,Wunderground v.1.15,2013-08-06 07:10:00,
2013-08-06 03:20:00,52.1,45.8,29.93,WNW,302,0.0,0.0,79,0.00,,,0.00,Wunderground v.1.15,2013-08-06 07:20:00,
2013-08-06 03:30:00,51.8,45.5,29.94,WNW,301,0.0,0.0,79,0.00,,,0.00,Wunderground v.1.15,2013-08-06 07:30:00,
2013-08-06 03:40:00,50.9,45.3,29.94,WNW,301,0.0,0.0,81,0.00,,,0.00,Wunderground v.1.15,2013-08-06 07:40:00,
2013-08-06 03:50:00,50.8,45.5,29.94,WNW,299,0.0,0.0,82,0.00,,,0.00,Wunderground v.1.15,2013-08-06 07:50:00,
2013-08-06 04:00:00,50.1,45.1,29.94,WNW,299,0.0,0.0,83,0.00,,,0.00,Wunderground v.1.15,2013-08-06 08:00:00,
2013-08-06 04:10:00,49.4,44.8,29.94,WNW,299,0.0,0.0,84,0.00,,,0.00,Wunderground v.1.15,2013-08-06 08:10:00,
2013-08-06 04:20:00,48.6,44.3,29.95,WNW,299,0.0,0.0,85,0.00,,,0.00,Wunderground v.1.15,2013-08-06 08:20:00,
2013-08-06 04:30:00,47.9,44.2,29.95,WNW,299,0.0,0.0,87,0.00,,,0.00,Wunderground v.1.15,2013-08-06 08:30:00,
2013-08-06 04:40:00,47.4,44.0,29.95,WNW,299,0.0,0.0,88,0.00,,,0.00,Wunderground v.1.15,2013-08-06 08:40:00,
2013-08-06 04:50:00,47.0,43.9,29.96,WNW,299,0.0,0.0,89,0.00,,,0.00,Wunderground v.1.15,2013-08-06 08:50:00,
2013-08-06 05:00:00,47.0,43.9,29.96,WNW,299,0.0,0.0,89,0.00,,,0.00,Wunderground v.1.15,2013-08-06 09:00:00,
2013-08-06 05:10:00,47.5,44.1,29.96,WNW,296,0.0,4.0,88,0.00,,,0.00,Wunderground v.1.15,2013-08-06 09:10:00,
2013-08-06 05:20:00,48.9,44.9,29.96,WNW,299,0.0,0.0,86,0.00,,,0.00,Wunderground v.1.15,2013-08-06 09:20:00,
2013-08-06 05:30:00,50.2,45.6,29.97,WNW,286,1.0,2.0,84,0.00,,,0.00,Wunderground v.1.15,2013-08-06 09:30:00,
2013-08-06 05:39:00,51.6,46.3,29.97,West,265,2.0,3.0,82,0.00,,,0.00,Wunderground v.1.15,2013-08-06 09:39:00,
2013-08-06 05:50:00,52.7,46.7,29.97,WNW,291,4.0,4.0,80,0.00,,,0.00,Wunderground v.1.15,2013-08-06 09:50:00,
2013-08-06 06:00:00,52.4,46.4,29.98,WNW,292,0.0,0.0,80,0.00,,,0.00,Wunderground v.1.15,2013-08-06 10:00:00,
2013-08-06 06:09:00,52.5,46.5,29.98,WNW,292,0.0,0.0,80,0.00,,,0.00,Wunderground v.1.15,2013-08-06 10:09:00,
2013-08-06 06:20:00,52.8,47.1,29.98,WNW,292,0.0,0.0,81,0.00,,,0.00,Wunderground v.1.15,2013-08-06 10:20:00,
2013-08-06 06:30:00,53.2,47.2,29.98,WNW,292,0.0,0.0,80,0.00,,,0.00,Wunderground v.1.15,2013-08-06 10:30:00,
2013-08-06 06:40:00,52.6,47.6,29.98,WNW,292,0.0,0.0,83,0.00,,,0.00,Wunderground v.1.15,2013-08-06 10:40:00,
2013-08-06 06:50:00,53.3,48.3,29.99,WNW,292,0.0,0.0,83,0.00,,,0.00,Wunderground v.1.15,2013-08-06 10:50:00,
2013-08-06 07:00:00,53.5,48.1,29.99,SW,220,1.0,1.0,82,0.00,,,0.00,Wunderground v.1.15,2013-08-06 11:00:00,
2013-08-06 07:10:00,53.3,48.3,29.99,SW,214,0.0,0.0,83,0.00,,,0.00,Wunderground v.1.15,2013-08-06 11:10:00,
2013-08-06 07:20:00,54.4,49.0,29.99,ESE,119,0.0,0.0,82,0.00,,,0.00,Wunderground v.1.15,2013-08-06 11:20:00,
2013-08-06 07:30:00,55.1,49.7,29.99,WNW,292,0.0,1.0,82,0.00,,,0.00,Wunderground v.1.15,2013-08-06 11:30:00,
2013-08-06 07:40:00,56.3,49.9,30.00,WNW,294,3.0,6.0,79,0.00,,,0.00,Wunderground v.1.15,2013-08-06 11:40:00,
2013-08-06 07:50:00,56.9,49.8,30.00,West,272,6.0,6.0,77,0.00,,,0.00,Wunderground v.1.15,2013-08-06 11:50:00,
2013-08-06 08:00:00,57.8,50.3,30.00,WNW,302,4.0,4.0,76,0.00,,,0.00,Wunderground v.1.15,2013-08-06 12:00:00,
2013-08-06 08:10:00,59.0,51.4,30.00,NNW,344,1.0,5.0,76,0.00,,,0.00,Wunderground v.1.15,2013-08-06 12:10:00,
2013-08-06 08:19:00,59.9,50.5,30.00,West,261,4.0,7.0,71,0.00,,,0.00,Wunderground v.1.15,2013-08-06 12:19:00,
2013-08-06 08:30:00,60.4,51.0,30.00,WNW,290,6.0,6.0,71,0.00,,,0.00,Wunderground v.1.15,2013-08-06 12:30:00,
2013-08-06 08:40:00,60.8,51.0,30.01,West,259,6.0,6.0,70,0.00,,,0.00,Wunderground v.1.15,2013-08-06 12:40:00,
2013-08-06 08:50:00,61.1,51.6,30.01,WNW,294,5.0,5.0,71,0.00,,,0.00,Wunderground v.1.15,2013-08-06 12:50:00,
2013-08-06 09:00:00,61.9,52.0,30.01,West,263,5.0,5.0,70,0.00,,,0.00,Wunderground v.1.15,2013-08-06 13:00:00,
2013-08-06 09:10:00,62.6,51.5,30.01,WSW,253,5.0,5.0,67,0.00,,,0.00,Wunderground v.1.15,2013-08-06 13:10:00,
2013-08-06 09:20:00,63.3,52.2,30.02,WNW,295,4.0,6.0,67,0.00,,,0.00,Wunderground v.1.15,2013-08-06 13:20:00,
2013-08-06 09:30:00,64.1,52.9,30.02,NW,318,3.0,3.0,67,0.00,,,0.00,Wunderground v.1.15,2013-08-06 13:30:00,
2013-08-06 09:40:00,64.1,52.9,30.02,WNW,290,4.0,4.0,67,0.00,,,0.00,Wunderground v.1.15,2013-08-06 13:40:00,
2013-08-06 09:50:00,64.8,51.9,30.02,WNW,288,5.0,6.0,63,0.00,,,0.00,Wunderground v.1.15,2013-08-06 13:50:00,
2013-08-06 10:00:00,65.4,52.5,30.03,NNW,329,6.0,6.0,63,0.00,,,0.00,Wunderground v.1.15,2013-08-06 14:00:00,
2013-08-06 10:10:00,65.9,52.9,30.03,NW,304,5.0,9.0,63,0.00,,,0.00,Wunderground v.1.15,2013-08-06 14:10:00,
2013-08-06 10:20:00,66.1,52.3,30.03,NW,304,5.0,5.0,61,0.00,,,0.00,Wunderground v.1.15,2013-08-06 14:20:00,
2013-08-06 10:30:00,66.8,52.9,30.03,WNW,300,5.0,5.0,61,0.00,,,0.00,Wunderground v.1.15,2013-08-06 14:30:00,
2013-08-06 10:40:00,67.1,53.2,30.03,West,280,5.0,5.0,61,0.00,,,0.00,Wunderground v.1.15,2013-08-06 14:40:00,
2013-08-06 10:50:00,67.2,52.8,30.03,WNW,292,4.0,5.0,60,0.00,,,0.00,Wunderground v.1.15,2013-08-06 14:50:00,
2013-08-06 11:00:00,67.5,53.6,30.03,WNW,290,5.0,7.0,61,0.00,,,0.00,Wunderground v.1.15,2013-08-06 15:00:00,
2013-08-06 11:10:00,67.9,53.0,30.03,West,279,4.0,6.0,59,0.00,,,0.00,Wunderground v.1.15,2013-08-06 15:10:00,
2013-08-06 11:20:00,68.5,53.6,30.03,WNW,301,4.0,4.0,59,0.00,,,0.00,Wunderground v.1.15,2013-08-06 15:20:00,
2013-08-06 11:30:00,69.0,53.6,30.04,NNW,329,5.0,5.0,58,0.00,,,0.00,Wunderground v.1.15,2013-08-06 15:30:00,
2013-08-06 11:40:00,68.9,53.0,30.04,NW,319,5.0,5.0,57,0.00,,,0.00,Wunderground v.1.15,2013-08-06 15:40:00,
2013-08-06 11:50:00,69.0,52.6,30.03,WNW,298,4.0,4.0,56,0.00,,,0.00,Wunderground v.1.15,2013-08-06 15:50:00,
2013-08-06 12:00:00,69.4,54.0,30.03,North,5,4.0,5.0,58,0.00,,,0.00,Wunderground v.1.15,2013-08-06 16:00:00,
2013-08-06 12:10:00,69.3,51.9,30.04,North,355,5.0,5.0,54,0.00,,,0.00,Wunderground v.1.15,2013-08-06 16:10:00,
2013-08-06 12:20:00,69.8,53.9,30.04,North,360,4.0,4.0,57,0.00,,,0.00,Wunderground v.1.15,2013-08-06 16:20:00,
2013-08-06 12:30:00,70.8,54.3,30.04,WNW,295,5.0,9.0,56,0.00,,,0.00,Wunderground v.1.15,2013-08-06 16:30:00,
2013-08-06 12:40:00,70.6,53.1,30.04,West,265,7.0,9.0,54,0.00,,,0.00,Wunderground v.1.15,2013-08-06 16:40:00,
2013-08-06 12:49:00,70.9,52.4,30.04,NW,306,4.0,9.0,52,0.00,,,0.00,Wunderground v.1.15,2013-08-06 16:49:00,
2013-08-06 13:00:00,71.3,54.8,30.03,NW,308,6.0,9.0,56,0.00,,,0.00,Wunderground v.1.15,2013-08-06 17:00:00,
2013-08-06 13:09:00,71.3,53.3,30.03,West,275,5.0,5.0,53,0.00,,,0.00,Wunderground v.1.15,2013-08-06 17:09:00,
2013-08-06 13:19:00,71.7,53.7,30.03,NNW,335,4.0,10.0,53,0.00,,,0.00,Wunderground v.1.15,2013-08-06 17:19:00,
2013-08-06 13:30:00,71.3,52.2,30.03,West,279,7.0,7.0,51,0.00,,,0.00,Wunderground v.1.15,2013-08-06 17:30:00,
2013-08-06 13:40:00,71.7,53.1,30.03,NNW,348,5.0,5.0,52,0.00,,,0.00,Wunderground v.1.15,2013-08-06 17:40:00,
2013-08-06 13:49:00,72.2,52.0,30.04,WNW,287,6.0,7.0,49,0.00,,,0.00,Wunderground v.1.15,2013-08-06 17:49:00,
2013-08-06 14:00:00,72.6,52.3,30.03,NW,325,4.0,9.0,49,0.00,,,0.00,Wunderground v.1.15,2013-08-06 18:00:00,
2013-08-06 14:10:00,72.6,52.9,30.03,West,275,5.0,5.0,50,0.00,,,0.00,Wunderground v.1.15,2013-08-06 18:10:00,
2013-08-06 14:19:00,72.8,52.5,30.02,WNW,296,5.0,5.0,49,0.00,,,0.00,Wunderground v.1.15,2013-08-06 18:19:00,
2013-08-06 14:30:00,73.7,53.3,30.03,WNW,284,5.0,5.0,49,0.00,,,0.00,Wunderground v.1.15,2013-08-06 18:30:00,
2013-08-06 14:40:00,73.5,53.7,30.02,WNW,285,5.0,5.0,50,0.00,,,0.00,Wunderground v.1.15,2013-08-06 18:40:00,
2013-08-06 14:50:00,73.2,54.5,30.02,NW,315,4.0,4.0,52,0.00,,,0.00,Wunderground v.1.15,2013-08-06 18:50:00,
2013-08-06 15:00:00,73.7,52.8,30.02,WNW,286,4.0,5.0,48,0.00,,,0.00,Wunderground v.1.15,2013-08-06 19:00:00,
2013-08-06 15:10:00,73.7,53.3,30.02,WNW,298,5.0,5.0,49,0.00,,,0.00,Wunderground v.1.15,2013-08-06 19:10:00,
2013-08-06 15:20:00,73.6,54.4,30.02,NW,315,7.0,7.0,51,0.00,,,0.00,Wunderground v.1.15,2013-08-06 19:20:00,
2013-08-06 15:30:00,73.7,52.8,30.03,North,5,5.0,5.0,48,0.00,,,0.00,Wunderground v.1.15,2013-08-06 19:30:00,
2013-08-06 15:40:00,73.8,54.5,30.03,NW,304,5.0,5.0,51,0.00,,,0.00,Wunderground v.1.15,2013-08-06 19:40:00,
2013-08-06 15:50:00,73.8,55.6,30.03,NW,322,6.0,6.0,53,0.00,,,0.00,Wunderground v.1.15,2013-08-06 19:50:00,
2013-08-06 16:00:00,72.8,53.6,30.03,WNW,290,5.0,6.0,51,0.00,,,0.00,Wunderground v.1.15,2013-08-06 20:00:00,
2013-08-06 16:09:00,72.6,53.4,30.03,WNW,283,3.0,3.0,51,0.00,,,0.00,Wunderground v.1.15,2013-08-06 20:09:00,
2013-08-06 16:19:00,73.0,54.9,30.03,WNW,294,2.0,4.0,53,0.00,,,0.00,Wunderground v.1.15,2013-08-06 20:19:00,
2013-08-06 16:30:00,73.1,55.5,30.03,NW,310,5.0,5.0,54,0.00,,,0.00,Wunderground v.1.15,2013-08-06 20:30:00,
2013-08-06 16:40:00,72.8,53.6,30.03,NW,323,4.0,7.0,51,0.00,,,0.00,Wunderground v.1.15,2013-08-06 20:40:00,
2013-08-06 16:50:00,73.6,54.9,30.03,NW,306,2.0,2.0,52,0.00,,,0.00,Wunderground v.1.15,2013-08-06 20:50:00,
2013-08-06 17:00:00,73.9,54.1,30.03,West,267,3.0,4.0,50,0.00,,,0.00,Wunderground v.1.15,2013-08-06 21:00:00,
2013-08-06 17:10:00,74.1,55.3,30.03,NNW,334,3.0,7.0,52,0.00,,,0.00,Wunderground v.1.15,2013-08-06 21:10:00,
2013-08-06 17:19:00,73.7,53.3,30.03,WNW,294,5.0,5.0,49,0.00,,,0.00,Wunderground v.1.15,2013-08-06 21:19:00,
2013-08-06 17:30:00,73.9,54.1,30.03,West,276,3.0,10.0,50,0.00,,,0.00,Wunderground v.1.15,2013-08-06 21:30:00,
2013-08-06 17:40:00,73.8,54.5,30.04,NW,313,2.0,2.0,51,0.00,,,0.00,Wunderground v.1.15,2013-08-06 21:40:00,
2013-08-06 17:50:00,73.8,55.6,30.04,WNW,283,1.0,1.0,53,0.00,,,0.00,Wunderground v.1.15,2013-08-06 21:50:00,
2013-08-06 18:00:00,74.0,54.7,30.05,NW,326,0.0,0.0,51,0.00,,,0.00,Wunderground v.1.15,2013-08-06 22:00:00,
2013-08-06 18:10:00,73.7,55.5,30.05,NW,317,1.0,1.0,53,0.00,,,0.00,Wunderground v.1.15,2013-08-06 22:10:00,
2013-08-06 18:19:00,73.5,54.8,30.05,WNW,283,2.0,2.0,52,0.00,,,0.00,Wunderground v.1.15,2013-08-06 22:19:00,
2013-08-06 18:30:00,73.2,55.6,30.05,WNW,284,1.0,1.0,54,0.00,,,0.00,Wunderground v.1.15,2013-08-06 22:30:00,
2013-08-06 18:40:00,73.0,55.4,30.05,NW,304,0.0,0.0,54,0.00,,,0.00,Wunderground v.1.15,2013-08-06 22:40:00,
2013-08-06 18:50:00,72.8,56.7,30.05,WNW,299,0.0,0.0,57,0.00,,,0.00,Wunderground v.1.15,2013-08-06 22:50:00,
2013-08-06 19:00:00,72.2,55.6,30.06,WNW,299,0.0,0.0,56,0.00,,,0.00,Wunderground v.1.15,2013-08-06 23:00:00,
2013-08-06 19:10:00,70.2,55.2,30.06,WNW,299,0.0,0.0,59,0.00,,,0.00,Wunderground v.1.15,2013-08-06 23:10:00,
2013-08-06 19:20:00,69.1,56.4,30.06,WNW,299,0.0,0.0,64,0.00,,,0.00,Wunderground v.1.15,2013-08-06 23:20:00,
2013-08-06 19:30:00,68.1,55.5,30.07,WNW,299,0.0,0.0,64,0.00,,,0.00,Wunderground v.1.15,2013-08-06 23:30:00,
2013-08-06 19:40:00,67.1,55.4,30.06,WNW,299,0.0,0.0,66,0.00,,,0.00,Wunderground v.1.15,2013-08-06 23:40:00,
2013-08-06 19:50:00,65.9,54.6,30.07,WNW,299,0.0,0.0,67,0.00,,,0.00,Wunderground v.1.15,2013-08-06 23:50:00,
2013-08-06 20:00:00,65.2,54.8,30.07,WNW,299,0.0,0.0,69,0.00,,,0.00,Wunderground v.1.15,2013-08-07 00:00:00,
2013-08-06 20:10:00,64.7,54.3,30.07,WNW,299,0.0,0.0,69,0.00,,,0.00,Wunderground v.1.15,2013-08-07 00:10:00,
2013-08-06 20:20:00,64.3,54.7,30.08,SW,218,0.0,9.0,71,0.00,,,0.00,Wunderground v.1.15,2013-08-07 00:20:00,
2013-08-06 20:30:00,63.3,54.9,30.08,SW,221,4.0,4.0,74,0.00,,,0.00,Wunderground v.1.15,2013-08-07 00:30:00,
2013-08-06 20:40:00,64.0,55.2,30.09,SW,218,1.0,1.0,73,0.00,,,0.00,Wunderground v.1.15,2013-08-07 00:40:00,
2013-08-06 20:50:00,64.4,55.2,30.08,SW,218,0.0,0.0,72,0.00,,,0.00,Wunderground v.1.15,2013-08-07 00:50:00,
2013-08-06 21:00:00,64.3,55.5,30.09,SW,218,0.0,0.0,73,0.00,,,0.00,Wunderground v.1.15,2013-08-07 01:00:00,
2013-08-06 21:10:00,62.9,54.9,30.09,SW,218,0.0,0.0,75,0.00,,,0.00,Wunderground v.1.15,2013-08-07 01:10:00,
2013-08-06 21:20:00,61.3,54.0,30.09,SW,218,0.0,0.0,77,0.00,,,0.00,Wunderground v.1.15,2013-08-07 01:20:00,
2013-08-06 21:30:00,60.9,54.3,30.09,SW,218,0.0,0.0,79,0.00,,,0.00,Wunderground v.1.15,2013-08-07 01:30:00,
2013-08-06 21:39:00,61.0,54.8,30.10,SW,218,0.0,0.0,80,0.00,,,0.00,Wunderground v.1.15,2013-08-07 01:39:00,
2013-08-06 21:50:00,61.1,55.2,30.10,SW,218,0.0,0.0,81,0.00,,,0.00,Wunderground v.1.15,2013-08-07 01:50:00,
2013-08-06 22:00:00,60.7,55.2,30.10,SW,218,0.0,0.0,82,0.00,,,0.00,Wunderground v.1.15,2013-08-07 02:00:00,
2013-08-06 22:09:00,60.4,55.5,30.10,SW,218,0.0,0.0,84,0.00,,,0.00,Wunderground v.1.15,2013-08-07 02:09:00,
2013-08-06 22:20:00,59.9,55.4,30.10,SW,218,0.0,0.0,85,0.00,,,0.00,Wunderground v.1.15,2013-08-07 02:20:00,
2013-08-06 22:30:00,59.2,55.0,30.10,SW,218,0.0,0.0,86,0.00,,,0.00,Wunderground v.1.15,2013-08-07 02:30:00,
2013-08-06 22:40:00,59.0,55.1,30.10,SW,218,0.0,0.0,87,0.00,,,0.00,Wunderground v.1.15,2013-08-07 02:40:00,
2013-08-06 22:49:00,58.5,55.0,30.10,SW,218,0.0,0.0,88,0.00,,,0.00,Wunderground v.1.15,2013-08-07 02:49:00,
2013-08-06 23:00:00,58.0,54.8,30.10,SW,218,0.0,0.0,89,0.00,,,0.00,Wunderground v.1.15,2013-08-07 03:00:00,
2013-08-06 23:09:00,57.9,55.0,30.10,SW,218,0.0,0.0,90,0.00,,,0.00,Wunderground v.1.15,2013-08-07 03:09:00,
2013-08-06 23:20:00,57.4,54.5,30.10,SW,218,0.0,0.0,90,0.00,,,0.00,Wunderground v.1.15,2013-08-07 03:20:00,
2013-08-06 23:30:00,57.0,54.1,30.10,SW,218,0.0,0.0,90,0.00,,,0.00,Wunderground v.1.15,2013-08-07 03:30:00,
2013-08-06 23:40:00,56.6,54.0,30.10,SW,218,0.0,0.0,91,0.00,,,0.00,Wunderground v.1.15,2013-08-07 03:40:00,
2013-08-06 23:49:00,56.4,54.1,30.10,SW,218,0.0,0.0,92,0.00,,,0.00,Wunderground v.1.15,2013-08-07 03:49:00,